sensor_id;sensor_type;location;lat;lon;timestamp;temperature;humidity
28524;DHT22;15734;50.904;6.922;2022-11-03T00:00:56;9.10;99.90
28524;DHT22;15734;50.904;6.922;2022-11-03T00:03:21;9.20;99.90
28524;DHT22;15734;50.904;6.922;2022-11-03T00:05:47;9.20;99.90
28524;DHT22;15734;50.904;6.922;2022-11-03T00:08:37;9.20;99.90
28524;DHT22;15734;50.904;6.922;2022-11-03T00:11:04;9.20;99.90
28524;DHT22;15734;50.904;6.922;2022-11-03T00:13:30;9.20;99.90
28524;DHT22;15734;50.904;6.922;2022-11-03T00:15:56;9.20;99.90
28524;DHT22;15734;50.904;6.922;2022-11-03T00:18:21;9.20;99.90
28524;DHT22;15734;50.904;6.922;2022-11-03T00:23:24;9.20;99.90
28524;DHT22;15734;50.904;6.922;2022-11-03T00:25:50;9.20;99.90
28524;DHT22;15734;50.904;6.922;2022-11-03T00:28:16;9.30;99.90
28524;DHT22;15734;50.904;6.922;2022-11-03T00:30:41;9.30;99.90
28524;DHT22;15734;50.904;6.922;2022-11-03T00:33:07;9.40;99.90
28524;DHT22;15734;50.904;6.922;2022-11-03T00:35:33;9.40;99.90
28524;DHT22;15734;50.904;6.922;2022-11-03T00:37:58;9.50;99.90
28524;DHT22;15734;50.904;6.922;2022-11-03T00:40:24;9.60;99.90
28524;DHT22;15734;50.904;6.922;2022-11-03T00:42:49;9.70;99.90
28524;DHT22;15734;50.904;6.922;2022-11-03T00:45:15;9.70;99.90
28524;DHT22;15734;50.904;6.922;2022-11-03T00:47:40;9.80;99.90
28524;DHT22;15734;50.904;6.922;2022-11-03T00:50:26;9.80;99.90
28524;DHT22;15734;50.904;6.922;2022-11-03T00:52:52;9.80;99.90
28524;DHT22;15734;50.904;6.922;2022-11-03T00:55:18;9.90;99.90
28524;DHT22;15734;50.904;6.922;2022-11-03T00:57:43;9.80;99.90
28524;DHT22;15734;50.904;6.922;2022-11-03T01:00:10;9.90;99.90
28524;DHT22;15734;50.904;6.922;2022-11-03T01:02:36;9.90;99.90
28524;DHT22;15734;50.904;6.922;2022-11-03T01:05:02;9.90;99.90
28524;DHT22;15734;50.904;6.922;2022-11-03T01:07:46;9.80;99.90
28524;DHT22;15734;50.904;6.922;2022-11-03T01:10:11;9.90;99.90
28524;DHT22;15734;50.904;6.922;2022-11-03T01:12:37;9.90;99.90
28524;DHT22;15734;50.904;6.922;2022-11-03T01:15:02;9.90;99.90
28524;DHT22;15734;50.904;6.922;2022-11-03T01:17:28;10.00;99.90
28524;DHT22;15734;50.904;6.922;2022-11-03T01:19:54;10.00;99.90
28524;DHT22;15734;50.904;6.922;2022-11-03T01:22:21;10.10;99.90
28524;DHT22;15734;50.904;6.922;2022-11-03T01:24:47;10.10;99.90
28524;DHT22;15734;50.904;6.922;2022-11-03T01:27:15;10.10;99.90
28524;DHT22;15734;50.904;6.922;2022-11-03T01:29:41;10.10;99.90
28524;DHT22;15734;50.904;6.922;2022-11-03T01:32:07;10.20;99.90
28524;DHT22;15734;50.904;6.922;2022-11-03T01:34:33;10.20;99.90
28524;DHT22;15734;50.904;6.922;2022-11-03T01:36:59;10.30;99.90
28524;DHT22;15734;50.904;6.922;2022-11-03T01:39:24;10.30;99.90
28524;DHT22;15734;50.904;6.922;2022-11-03T01:41:51;10.30;99.90
28524;DHT22;15734;50.904;6.922;2022-11-03T01:44:24;10.30;99.90
28524;DHT22;15734;50.904;6.922;2022-11-03T01:52:23;10.30;99.90
28524;DHT22;15734;50.904;6.922;2022-11-03T01:54:56;10.30;99.90
28524;DHT22;15734;50.904;6.922;2022-11-03T01:57:26;10.30;99.90
28524;DHT22;15734;50.904;6.922;2022-11-03T01:59:54;10.30;99.90
28524;DHT22;15734;50.904;6.922;2022-11-03T02:02:22;10.20;99.90
28524;DHT22;15734;50.904;6.922;2022-11-03T02:04:48;10.20;99.90
28524;DHT22;15734;50.904;6.922;2022-11-03T02:07:18;10.20;99.90
28524;DHT22;15734;50.904;6.922;2022-11-03T02:09:46;10.10;99.90
28524;DHT22;15734;50.904;6.922;2022-11-03T02:12:13;10.10;99.90
28524;DHT22;15734;50.904;6.922;2022-11-03T02:14:44;10.10;99.90
28524;DHT22;15734;50.904;6.922;2022-11-03T02:17:12;10.20;99.90
28524;DHT22;15734;50.904;6.922;2022-11-03T02:19:45;10.10;99.90
28524;DHT22;15734;50.904;6.922;2022-11-03T02:22:26;10.10;99.90
28524;DHT22;15734;50.904;6.922;2022-11-03T02:27:59;10.10;99.90
28524;DHT22;15734;50.904;6.922;2022-11-03T02:30:27;10.00;99.90
28524;DHT22;15734;50.904;6.922;2022-11-03T02:33:03;10.00;99.90
28524;DHT22;15734;50.904;6.922;2022-11-03T02:35:42;10.00;99.90
28524;DHT22;15734;50.904;6.922;2022-11-03T02:38:13;10.00;99.90
28524;DHT22;15734;50.904;6.922;2022-11-03T02:40:44;9.90;99.90
28524;DHT22;15734;50.904;6.922;2022-11-03T02:43:12;9.90;99.90
28524;DHT22;15734;50.904;6.922;2022-11-03T02:45:39;9.80;99.90
28524;DHT22;15734;50.904;6.922;2022-11-03T02:48:05;9.80;99.90
28524;DHT22;15734;50.904;6.922;2022-11-03T02:50:33;9.80;99.90
28524;DHT22;15734;50.904;6.922;2022-11-03T02:52:59;9.80;99.90
28524;DHT22;15734;50.904;6.922;2022-11-03T02:58:23;9.80;99.90
28524;DHT22;15734;50.904;6.922;2022-11-03T03:01:01;9.80;99.90
28524;DHT22;15734;50.904;6.922;2022-11-03T03:03:36;9.80;99.90
28524;DHT22;15734;50.904;6.922;2022-11-03T03:06:08;9.80;99.90
28524;DHT22;15734;50.904;6.922;2022-11-03T03:08:35;9.80;99.90
28524;DHT22;15734;50.904;6.922;2022-11-03T03:11:04;9.80;99.90
28524;DHT22;15734;50.904;6.922;2022-11-03T03:13:31;9.80;99.90
28524;DHT22;15734;50.904;6.922;2022-11-03T03:16:16;9.90;99.90
28524;DHT22;15734;50.904;6.922;2022-11-03T03:19:00;9.90;99.90
28524;DHT22;15734;50.904;6.922;2022-11-03T03:21:31;9.90;99.90
28524;DHT22;15734;50.904;6.922;2022-11-03T03:24:01;9.90;99.90
28524;DHT22;15734;50.904;6.922;2022-11-03T03:26:29;9.90;99.90
28524;DHT22;15734;50.904;6.922;2022-11-03T03:29:13;10.00;99.90
28524;DHT22;15734;50.904;6.922;2022-11-03T03:31:43;10.00;99.90
28524;DHT22;15734;50.904;6.922;2022-11-03T03:34:14;10.10;99.90
28524;DHT22;15734;50.904;6.922;2022-11-03T03:36:42;10.10;99.90
28524;DHT22;15734;50.904;6.922;2022-11-03T03:39:09;10.10;99.90
28524;DHT22;15734;50.904;6.922;2022-11-03T03:41:36;10.10;99.90
28524;DHT22;15734;50.904;6.922;2022-11-03T03:44:04;10.10;99.90
28524;DHT22;15734;50.904;6.922;2022-11-03T03:46:37;10.10;99.90
28524;DHT22;15734;50.904;6.922;2022-11-03T03:49:04;10.10;99.90
28524;DHT22;15734;50.904;6.922;2022-11-03T03:51:30;10.10;99.90
28524;DHT22;15734;50.904;6.922;2022-11-03T03:53:56;10.00;99.90
28524;DHT22;15734;50.904;6.922;2022-11-03T03:56:46;10.00;99.90
28524;DHT22;15734;50.904;6.922;2022-11-03T03:59:13;10.00;99.90
28524;DHT22;15734;50.904;6.922;2022-11-03T04:01:38;9.90;99.90
28524;DHT22;15734;50.904;6.922;2022-11-03T04:04:04;9.80;99.90
28524;DHT22;15734;50.904;6.922;2022-11-03T04:06:30;9.80;99.90
28524;DHT22;15734;50.904;6.922;2022-11-03T04:08:55;9.80;99.90
28524;DHT22;15734;50.904;6.922;2022-11-03T04:11:21;9.80;99.90
28524;DHT22;15734;50.904;6.922;2022-11-03T04:14:05;9.80;99.90
28524;DHT22;15734;50.904;6.922;2022-11-03T04:16:49;9.80;99.90
28524;DHT22;15734;50.904;6.922;2022-11-03T04:19:33;9.80;99.90
28524;DHT22;15734;50.904;6.922;2022-11-03T04:22:17;9.80;99.90
28524;DHT22;15734;50.904;6.922;2022-11-03T04:24:49;9.80;99.90
28524;DHT22;15734;50.904;6.922;2022-11-03T04:29:57;9.80;99.90
28524;DHT22;15734;50.904;6.922;2022-11-03T04:32:24;9.90;99.90
28524;DHT22;15734;50.904;6.922;2022-11-03T04:34:50;9.80;99.90
28524;DHT22;15734;50.904;6.922;2022-11-03T04:37:16;9.90;99.90
28524;DHT22;15734;50.904;6.922;2022-11-03T04:39:41;9.90;99.90
28524;DHT22;15734;50.904;6.922;2022-11-03T04:42:18;9.90;99.90
28524;DHT22;15734;50.904;6.922;2022-11-03T04:44:45;9.90;99.90
28524;DHT22;15734;50.904;6.922;2022-11-03T04:47:12;9.90;99.90
28524;DHT22;15734;50.904;6.922;2022-11-03T04:49:38;9.90;99.90
28524;DHT22;15734;50.904;6.922;2022-11-03T04:52:30;9.90;99.90
28524;DHT22;15734;50.904;6.922;2022-11-03T04:54:56;9.90;99.90
28524;DHT22;15734;50.904;6.922;2022-11-03T04:57:21;9.80;99.90
28524;DHT22;15734;50.904;6.922;2022-11-03T04:59:48;9.80;99.90
28524;DHT22;15734;50.904;6.922;2022-11-03T05:02:18;9.80;99.90
28524;DHT22;15734;50.904;6.922;2022-11-03T05:04:44;9.80;99.90
28524;DHT22;15734;50.904;6.922;2022-11-03T05:07:33;9.80;99.90
28524;DHT22;15734;50.904;6.922;2022-11-03T05:10:00;9.80;99.90
28524;DHT22;15734;50.904;6.922;2022-11-03T05:12:26;9.90;99.90
28524;DHT22;15734;50.904;6.922;2022-11-03T05:14:52;9.90;99.90
28524;DHT22;15734;50.904;6.922;2022-11-03T05:17:22;9.90;99.90
28524;DHT22;15734;50.904;6.922;2022-11-03T05:19:56;9.90;99.90
28524;DHT22;15734;50.904;6.922;2022-11-03T05:22:24;9.90;99.90
28524;DHT22;15734;50.904;6.922;2022-11-03T05:24:57;9.90;99.90
28524;DHT22;15734;50.904;6.922;2022-11-03T05:27:24;9.90;99.90
28524;DHT22;15734;50.904;6.922;2022-11-03T05:29:52;10.00;99.90
28524;DHT22;15734;50.904;6.922;2022-11-03T05:32:22;10.00;99.90
28524;DHT22;15734;50.904;6.922;2022-11-03T05:34:51;10.10;99.90
28524;DHT22;15734;50.904;6.922;2022-11-03T05:37:32;10.10;99.90
28524;DHT22;15734;50.904;6.922;2022-11-03T05:40:18;10.10;99.90
28524;DHT22;15734;50.904;6.922;2022-11-03T05:42:46;10.20;99.90
28524;DHT22;15734;50.904;6.922;2022-11-03T05:45:23;10.20;99.90
28524;DHT22;15734;50.904;6.922;2022-11-03T05:47:53;10.20;99.90
28524;DHT22;15734;50.904;6.922;2022-11-03T05:50:22;10.30;99.90
28524;DHT22;15734;50.904;6.922;2022-11-03T05:52:52;10.30;99.90
28524;DHT22;15734;50.904;6.922;2022-11-03T05:57:50;10.40;99.90
28524;DHT22;15734;50.904;6.922;2022-11-03T06:00:29;10.50;99.90
28524;DHT22;15734;50.904;6.922;2022-11-03T06:02:55;10.50;99.90
28524;DHT22;15734;50.904;6.922;2022-11-03T06:05:23;10.50;99.90
28524;DHT22;15734;50.904;6.922;2022-11-03T06:07:54;10.50;99.90
28524;DHT22;15734;50.904;6.922;2022-11-03T06:10:31;10.50;99.90
28524;DHT22;15734;50.904;6.922;2022-11-03T06:13:06;10.50;99.90
28524;DHT22;15734;50.904;6.922;2022-11-03T06:15:35;10.50;99.90
28524;DHT22;15734;50.904;6.922;2022-11-03T06:18:15;10.50;99.90
28524;DHT22;15734;50.904;6.922;2022-11-03T06:20:52;10.50;99.90
28524;DHT22;15734;50.904;6.922;2022-11-03T06:23:20;10.50;99.90
28524;DHT22;15734;50.904;6.922;2022-11-03T06:25:45;10.50;99.90
28524;DHT22;15734;50.904;6.922;2022-11-03T06:28:38;10.50;99.90
28524;DHT22;15734;50.904;6.922;2022-11-03T06:31:13;10.50;99.90
28524;DHT22;15734;50.904;6.922;2022-11-03T06:33:39;10.50;99.90
28524;DHT22;15734;50.904;6.922;2022-11-03T06:36:18;10.60;99.90
28524;DHT22;15734;50.904;6.922;2022-11-03T06:38:56;10.60;99.90
28524;DHT22;15734;50.904;6.922;2022-11-03T06:41:25;10.60;99.90
28524;DHT22;15734;50.904;6.922;2022-11-03T06:43:51;10.60;99.90
28524;DHT22;15734;50.904;6.922;2022-11-03T06:46:24;10.70;99.90
28524;DHT22;15734;50.904;6.922;2022-11-03T06:48:52;10.70;99.90
28524;DHT22;15734;50.904;6.922;2022-11-03T06:51:24;10.70;99.90
28524;DHT22;15734;50.904;6.922;2022-11-03T06:53:52;10.70;99.90
28524;DHT22;15734;50.904;6.922;2022-11-03T06:56:21;10.70;99.90
28524;DHT22;15734;50.904;6.922;2022-11-03T06:58:47;10.70;99.90
28524;DHT22;15734;50.904;6.922;2022-11-03T07:01:17;10.70;99.90
28524;DHT22;15734;50.904;6.922;2022-11-03T07:03:43;10.70;99.90
28524;DHT22;15734;50.904;6.922;2022-11-03T07:08:45;10.60;99.90
28524;DHT22;15734;50.904;6.922;2022-11-03T07:13:51;10.60;99.90
28524;DHT22;15734;50.904;6.922;2022-11-03T07:16:41;10.70;99.90
28524;DHT22;15734;50.904;6.922;2022-11-03T07:21:48;10.80;99.90
28524;DHT22;15734;50.904;6.922;2022-11-03T07:26:42;10.90;99.90
28524;DHT22;15734;50.904;6.922;2022-11-03T07:29:19;10.90;99.90
28524;DHT22;15734;50.904;6.922;2022-11-03T07:31:47;11.00;99.90
28524;DHT22;15734;50.904;6.922;2022-11-03T07:34:16;11.10;99.90
28524;DHT22;15734;50.904;6.922;2022-11-03T07:36:44;11.20;99.90
28524;DHT22;15734;50.904;6.922;2022-11-03T07:39:14;11.20;99.90
28524;DHT22;15734;50.904;6.922;2022-11-03T07:41:40;11.30;99.90
28524;DHT22;15734;50.904;6.922;2022-11-03T07:44:20;11.40;99.90
28524;DHT22;15734;50.904;6.922;2022-11-03T07:46:49;11.50;99.90
28524;DHT22;15734;50.904;6.922;2022-11-03T07:49:33;11.50;99.90
28524;DHT22;15734;50.904;6.922;2022-11-03T07:51:59;11.70;99.90
28524;DHT22;15734;50.904;6.922;2022-11-03T07:54:31;11.80;99.90
28524;DHT22;15734;50.904;6.922;2022-11-03T07:57:00;11.90;99.90
28524;DHT22;15734;50.904;6.922;2022-11-03T07:59:38;12.00;99.90
28524;DHT22;15734;50.904;6.922;2022-11-03T08:02:33;12.10;99.90
28524;DHT22;15734;50.904;6.922;2022-11-03T08:05:03;12.20;99.90
28524;DHT22;15734;50.904;6.922;2022-11-03T08:07:29;12.20;99.90
28524;DHT22;15734;50.904;6.922;2022-11-03T08:09:56;12.30;99.90
28524;DHT22;15734;50.904;6.922;2022-11-03T08:12:22;12.30;99.90
28524;DHT22;15734;50.904;6.922;2022-11-03T08:14:51;12.30;99.90
28524;DHT22;15734;50.904;6.922;2022-11-03T08:17:17;12.40;99.90
28524;DHT22;15734;50.904;6.922;2022-11-03T08:19:43;12.40;99.90
28524;DHT22;15734;50.904;6.922;2022-11-03T08:22:11;12.50;99.90
28524;DHT22;15734;50.904;6.922;2022-11-03T08:24:40;12.50;99.90
28524;DHT22;15734;50.904;6.922;2022-11-03T08:27:06;12.60;99.90
28524;DHT22;15734;50.904;6.922;2022-11-03T08:29:31;12.60;99.90
28524;DHT22;15734;50.904;6.922;2022-11-03T08:31:57;12.70;99.90
28524;DHT22;15734;50.904;6.922;2022-11-03T08:34:23;12.80;99.90
28524;DHT22;15734;50.904;6.922;2022-11-03T08:36:49;12.80;99.90
28524;DHT22;15734;50.904;6.922;2022-11-03T08:39:14;12.90;99.90
28524;DHT22;15734;50.904;6.922;2022-11-03T08:41:40;13.00;99.90
28524;DHT22;15734;50.904;6.922;2022-11-03T08:44:05;13.00;99.90
28524;DHT22;15734;50.904;6.922;2022-11-03T08:46:31;13.10;99.90
28524;DHT22;15734;50.904;6.922;2022-11-03T08:48:57;13.20;99.90
28524;DHT22;15734;50.904;6.922;2022-11-03T08:51:23;13.30;99.90
28524;DHT22;15734;50.904;6.922;2022-11-03T08:53:49;13.30;99.90
28524;DHT22;15734;50.904;6.922;2022-11-03T08:56:19;13.40;99.90
28524;DHT22;15734;50.904;6.922;2022-11-03T08:58:52;13.50;99.90
28524;DHT22;15734;50.904;6.922;2022-11-03T09:01:18;13.50;99.90
28524;DHT22;15734;50.904;6.922;2022-11-03T09:04:13;13.60;99.90
28524;DHT22;15734;50.904;6.922;2022-11-03T09:06:39;13.60;99.90
28524;DHT22;15734;50.904;6.922;2022-11-03T09:09:07;13.70;99.90
28524;DHT22;15734;50.904;6.922;2022-11-03T09:11:33;13.70;99.90
28524;DHT22;15734;50.904;6.922;2022-11-03T09:13:58;13.80;99.90
28524;DHT22;15734;50.904;6.922;2022-11-03T09:16:24;13.80;99.90
28524;DHT22;15734;50.904;6.922;2022-11-03T09:18:49;13.80;99.90
28524;DHT22;15734;50.904;6.922;2022-11-03T09:21:15;13.80;99.90
28524;DHT22;15734;50.904;6.922;2022-11-03T09:23:41;13.80;99.90
28524;DHT22;15734;50.904;6.922;2022-11-03T09:26:06;13.90;99.90
28524;DHT22;15734;50.904;6.922;2022-11-03T09:28:32;13.90;99.90
28524;DHT22;15734;50.904;6.922;2022-11-03T09:30:58;13.90;99.90
28524;DHT22;15734;50.904;6.922;2022-11-03T09:33:23;13.90;99.90
28524;DHT22;15734;50.904;6.922;2022-11-03T09:35:49;13.90;99.90
28524;DHT22;15734;50.904;6.922;2022-11-03T09:38:14;14.00;99.90
28524;DHT22;15734;50.904;6.922;2022-11-03T09:40:40;14.00;99.90
28524;DHT22;15734;50.904;6.922;2022-11-03T09:43:06;14.00;99.90
28524;DHT22;15734;50.904;6.922;2022-11-03T09:45:32;14.00;99.90
28524;DHT22;15734;50.904;6.922;2022-11-03T09:47:57;14.00;99.90
28524;DHT22;15734;50.904;6.922;2022-11-03T09:50:23;14.00;99.90
28524;DHT22;15734;50.904;6.922;2022-11-03T09:52:49;14.00;99.90
28524;DHT22;15734;50.904;6.922;2022-11-03T09:55:24;14.00;99.90
28524;DHT22;15734;50.904;6.922;2022-11-03T09:57:56;14.00;99.90
28524;DHT22;15734;50.904;6.922;2022-11-03T10:00:23;14.00;99.90
28524;DHT22;15734;50.904;6.922;2022-11-03T10:02:52;13.90;99.90
28524;DHT22;15734;50.904;6.922;2022-11-03T10:05:28;13.90;99.90
28524;DHT22;15734;50.904;6.922;2022-11-03T10:08:06;13.70;99.90
28524;DHT22;15734;50.904;6.922;2022-11-03T10:10:33;13.50;99.90
28524;DHT22;15734;50.904;6.922;2022-11-03T10:13:00;13.60;99.90
28524;DHT22;15734;50.904;6.922;2022-11-03T10:15:26;13.60;99.90
28524;DHT22;15734;50.904;6.922;2022-11-03T10:17:53;13.60;99.90
28524;DHT22;15734;50.904;6.922;2022-11-03T10:20:21;13.60;99.90
28524;DHT22;15734;50.904;6.922;2022-11-03T10:22:52;13.70;99.90
28524;DHT22;15734;50.904;6.922;2022-11-03T10:25:28;13.70;99.90
28524;DHT22;15734;50.904;6.922;2022-11-03T10:28:13;13.90;99.90
28524;DHT22;15734;50.904;6.922;2022-11-03T10:33:34;13.90;99.90
28524;DHT22;15734;50.904;6.922;2022-11-03T10:36:03;14.00;99.90
28524;DHT22;15734;50.904;6.922;2022-11-03T10:38:31;14.00;99.90
28524;DHT22;15734;50.904;6.922;2022-11-03T10:43:42;13.90;99.90
28524;DHT22;15734;50.904;6.922;2022-11-03T10:46:14;13.90;99.90
28524;DHT22;15734;50.904;6.922;2022-11-03T10:48:40;13.90;99.90
28524;DHT22;15734;50.904;6.922;2022-11-03T10:51:10;13.80;99.90
28524;DHT22;15734;50.904;6.922;2022-11-03T10:53:36;13.80;99.90
28524;DHT22;15734;50.904;6.922;2022-11-03T10:56:02;13.80;99.90
28524;DHT22;15734;50.904;6.922;2022-11-03T10:58:29;13.80;99.90
28524;DHT22;15734;50.904;6.922;2022-11-03T11:00:55;13.80;99.90
28524;DHT22;15734;50.904;6.922;2022-11-03T11:03:20;13.80;99.90
28524;DHT22;15734;50.904;6.922;2022-11-03T11:05:46;13.70;99.90
28524;DHT22;15734;50.904;6.922;2022-11-03T11:08:21;13.80;99.90
28524;DHT22;15734;50.904;6.922;2022-11-03T11:10:47;13.80;99.90
28524;DHT22;15734;50.904;6.922;2022-11-03T11:13:24;13.70;99.90
28524;DHT22;15734;50.904;6.922;2022-11-03T11:16:00;13.60;99.90
28524;DHT22;15734;50.904;6.922;2022-11-03T11:20:52;13.70;99.90
28524;DHT22;15734;50.904;6.922;2022-11-03T11:28:33;13.70;99.90
28524;DHT22;15734;50.904;6.922;2022-11-03T11:30:58;13.70;99.90
28524;DHT22;15734;50.904;6.922;2022-11-03T11:33:26;13.80;99.90
28524;DHT22;15734;50.904;6.922;2022-11-03T11:38:43;13.90;99.90
28524;DHT22;15734;50.904;6.922;2022-11-03T11:41:09;13.80;99.90
28524;DHT22;15734;50.904;6.922;2022-11-03T11:43:34;13.80;99.90
28524;DHT22;15734;50.904;6.922;2022-11-03T11:51:33;13.80;99.90
28524;DHT22;15734;50.904;6.922;2022-11-03T11:53:59;13.80;99.90
28524;DHT22;15734;50.904;6.922;2022-11-03T11:56:28;13.80;99.90
28524;DHT22;15734;50.904;6.922;2022-11-03T11:58:54;13.80;99.90
28524;DHT22;15734;50.904;6.922;2022-11-03T12:01:24;13.80;99.90
28524;DHT22;15734;50.904;6.922;2022-11-03T12:03:57;13.70;99.90
28524;DHT22;15734;50.904;6.922;2022-11-03T12:06:37;13.60;99.90
28524;DHT22;15734;50.904;6.922;2022-11-03T12:11:52;13.60;99.90
28524;DHT22;15734;50.904;6.922;2022-11-03T12:16:54;13.60;99.90
28524;DHT22;15734;50.904;6.922;2022-11-03T12:22:09;13.60;99.90
28524;DHT22;15734;50.904;6.922;2022-11-03T12:24:59;13.70;99.90
28524;DHT22;15734;50.904;6.922;2022-11-03T12:29:55;13.70;99.90
28524;DHT22;15734;50.904;6.922;2022-11-03T12:32:21;13.70;99.90
28524;DHT22;15734;50.904;6.922;2022-11-03T12:34:47;13.70;99.90
28524;DHT22;15734;50.904;6.922;2022-11-03T12:37:13;13.70;99.90
28524;DHT22;15734;50.904;6.922;2022-11-03T12:39:38;13.70;99.90
28524;DHT22;15734;50.904;6.922;2022-11-03T12:42:05;13.70;99.90
28524;DHT22;15734;50.904;6.922;2022-11-03T12:44:31;13.80;99.90
28524;DHT22;15734;50.904;6.922;2022-11-03T12:46:57;13.80;99.90
28524;DHT22;15734;50.904;6.922;2022-11-03T12:49:23;13.70;99.90
28524;DHT22;15734;50.904;6.922;2022-11-03T12:51:48;13.70;99.90
28524;DHT22;15734;50.904;6.922;2022-11-03T12:54:14;13.60;99.90
28524;DHT22;15734;50.904;6.922;2022-11-03T12:56:39;13.60;99.90
28524;DHT22;15734;50.904;6.922;2022-11-03T12:59:05;13.60;99.90
28524;DHT22;15734;50.904;6.922;2022-11-03T13:01:30;13.70;99.90
28524;DHT22;15734;50.904;6.922;2022-11-03T13:03:58;13.60;99.90
28524;DHT22;15734;50.904;6.922;2022-11-03T13:06:23;13.60;99.90
28524;DHT22;15734;50.904;6.922;2022-11-03T13:08:49;13.70;99.90
28524;DHT22;15734;50.904;6.922;2022-11-03T13:11:15;13.70;99.90
28524;DHT22;15734;50.904;6.922;2022-11-03T13:13:59;13.70;99.90
28524;DHT22;15734;50.904;6.922;2022-11-03T13:16:24;13.70;99.90
28524;DHT22;15734;50.904;6.922;2022-11-03T13:18:50;13.70;99.90
28524;DHT22;15734;50.904;6.922;2022-11-03T13:21:16;13.70;99.90
28524;DHT22;15734;50.904;6.922;2022-11-03T13:23:42;13.60;99.90
28524;DHT22;15734;50.904;6.922;2022-11-03T13:26:08;13.70;99.90
28524;DHT22;15734;50.904;6.922;2022-11-03T13:28:33;13.70;99.90
28524;DHT22;15734;50.904;6.922;2022-11-03T13:30:59;13.70;99.90
28524;DHT22;15734;50.904;6.922;2022-11-03T13:33:25;13.70;99.90
28524;DHT22;15734;50.904;6.922;2022-11-03T13:35:51;13.70;99.90
28524;DHT22;15734;50.904;6.922;2022-11-03T13:38:16;13.70;99.90
28524;DHT22;15734;50.904;6.922;2022-11-03T13:40:42;13.70;99.90
28524;DHT22;15734;50.904;6.922;2022-11-03T13:43:07;13.60;99.90
28524;DHT22;15734;50.904;6.922;2022-11-03T13:45:33;13.70;99.90
28524;DHT22;15734;50.904;6.922;2022-11-03T13:47:59;13.60;99.90
28524;DHT22;15734;50.904;6.922;2022-11-03T13:50:24;13.60;99.90
28524;DHT22;15734;50.904;6.922;2022-11-03T13:52:50;13.50;99.90
28524;DHT22;15734;50.904;6.922;2022-11-03T13:55:16;13.50;99.90
28524;DHT22;15734;50.904;6.922;2022-11-03T13:57:42;13.50;99.90
28524;DHT22;15734;50.904;6.922;2022-11-03T14:00:09;13.40;99.90
28524;DHT22;15734;50.904;6.922;2022-11-03T14:02:38;13.50;99.90
28524;DHT22;15734;50.904;6.922;2022-11-03T14:05:04;13.40;99.90
28524;DHT22;15734;50.904;6.922;2022-11-03T14:07:29;13.40;99.90
28524;DHT22;15734;50.904;6.922;2022-11-03T14:09:55;13.40;99.90
28524;DHT22;15734;50.904;6.922;2022-11-03T14:12:21;13.40;99.90
28524;DHT22;15734;50.904;6.922;2022-11-03T14:14:56;13.40;99.90
28524;DHT22;15734;50.904;6.922;2022-11-03T14:17:21;13.50;99.90
28524;DHT22;15734;50.904;6.922;2022-11-03T14:19:49;13.40;99.90
28524;DHT22;15734;50.904;6.922;2022-11-03T14:22:15;13.50;99.90
28524;DHT22;15734;50.904;6.922;2022-11-03T14:24:40;13.50;99.90
28524;DHT22;15734;50.904;6.922;2022-11-03T14:27:06;13.50;99.90
28524;DHT22;15734;50.904;6.922;2022-11-03T14:29:31;13.40;99.90
28524;DHT22;15734;50.904;6.922;2022-11-03T14:31:57;13.40;99.90
28524;DHT22;15734;50.904;6.922;2022-11-03T14:34:23;13.40;99.90
28524;DHT22;15734;50.904;6.922;2022-11-03T14:36:48;13.30;99.90
28524;DHT22;15734;50.904;6.922;2022-11-03T14:39:14;13.30;99.90
28524;DHT22;15734;50.904;6.922;2022-11-03T14:41:40;13.30;99.90
28524;DHT22;15734;50.904;6.922;2022-11-03T14:44:24;13.10;99.90
28524;DHT22;15734;50.904;6.922;2022-11-03T14:46:49;13.10;99.90
28524;DHT22;15734;50.904;6.922;2022-11-03T14:49:15;13.00;99.90
28524;DHT22;15734;50.904;6.922;2022-11-03T14:51:41;13.00;99.90
28524;DHT22;15734;50.904;6.922;2022-11-03T14:54:07;12.90;99.90
28524;DHT22;15734;50.904;6.922;2022-11-03T14:56:33;12.80;99.90
28524;DHT22;15734;50.904;6.922;2022-11-03T14:58:58;12.70;99.90
28524;DHT22;15734;50.904;6.922;2022-11-03T15:01:24;12.50;99.90
28524;DHT22;15734;50.904;6.922;2022-11-03T15:03:49;12.40;99.90
28524;DHT22;15734;50.904;6.922;2022-11-03T15:06:15;12.40;99.90
28524;DHT22;15734;50.904;6.922;2022-11-03T15:08:41;12.40;99.90
28524;DHT22;15734;50.904;6.922;2022-11-03T15:11:07;12.30;99.90
28524;DHT22;15734;50.904;6.922;2022-11-03T15:13:34;12.30;99.90
28524;DHT22;15734;50.904;6.922;2022-11-03T15:15:59;12.20;99.90
28524;DHT22;15734;50.904;6.922;2022-11-03T15:18:25;12.30;99.90
28524;DHT22;15734;50.904;6.922;2022-11-03T15:20:51;12.10;99.90
28524;DHT22;15734;50.904;6.922;2022-11-03T15:23:17;12.10;99.90
28524;DHT22;15734;50.904;6.922;2022-11-03T15:25:42;12.00;99.90
28524;DHT22;15734;50.904;6.922;2022-11-03T15:28:08;11.90;99.90
28524;DHT22;15734;50.904;6.922;2022-11-03T15:33:11;11.80;99.90
28524;DHT22;15734;50.904;6.922;2022-11-03T15:35:36;11.80;99.90
28524;DHT22;15734;50.904;6.922;2022-11-03T15:38:02;11.70;99.90
28524;DHT22;15734;50.904;6.922;2022-11-03T15:40:28;11.70;99.90
28524;DHT22;15734;50.904;6.922;2022-11-03T15:42:53;11.80;99.90
28524;DHT22;15734;50.904;6.922;2022-11-03T15:45:19;11.70;99.90
28524;DHT22;15734;50.904;6.922;2022-11-03T15:47:45;11.70;99.90
28524;DHT22;15734;50.904;6.922;2022-11-03T15:50:11;11.70;99.90
28524;DHT22;15734;50.904;6.922;2022-11-03T15:52:37;11.80;99.90
28524;DHT22;15734;50.904;6.922;2022-11-03T15:55:04;11.70;99.90
28524;DHT22;15734;50.904;6.922;2022-11-03T15:57:31;11.70;99.90
28524;DHT22;15734;50.904;6.922;2022-11-03T15:59:57;11.60;99.90
28524;DHT22;15734;50.904;6.922;2022-11-03T16:02:22;11.70;99.90
28524;DHT22;15734;50.904;6.922;2022-11-03T16:04:49;11.70;99.90
28524;DHT22;15734;50.904;6.922;2022-11-03T16:07:14;11.70;99.90
28524;DHT22;15734;50.904;6.922;2022-11-03T16:09:40;11.70;99.90
28524;DHT22;15734;50.904;6.922;2022-11-03T16:12:05;11.70;99.90
28524;DHT22;15734;50.904;6.922;2022-11-03T16:14:31;11.70;99.90
28524;DHT22;15734;50.904;6.922;2022-11-03T16:16:57;11.70;99.90
28524;DHT22;15734;50.904;6.922;2022-11-03T16:19:22;11.70;99.90
28524;DHT22;15734;50.904;6.922;2022-11-03T16:21:48;11.70;99.90
28524;DHT22;15734;50.904;6.922;2022-11-03T16:24:13;11.70;99.90
28524;DHT22;15734;50.904;6.922;2022-11-03T16:26:39;11.70;99.90
28524;DHT22;15734;50.904;6.922;2022-11-03T16:29:05;11.80;99.90
28524;DHT22;15734;50.904;6.922;2022-11-03T16:31:30;11.80;99.90
28524;DHT22;15734;50.904;6.922;2022-11-03T16:33:56;11.80;99.90
28524;DHT22;15734;50.904;6.922;2022-11-03T16:36:23;11.80;99.90
28524;DHT22;15734;50.904;6.922;2022-11-03T16:38:52;11.80;99.90
28524;DHT22;15734;50.904;6.922;2022-11-03T16:41:17;11.80;99.90
28524;DHT22;15734;50.904;6.922;2022-11-03T16:43:43;11.80;99.90
28524;DHT22;15734;50.904;6.922;2022-11-03T16:46:08;11.80;99.90
28524;DHT22;15734;50.904;6.922;2022-11-03T16:48:34;11.80;99.90